sensor_id;sensor_type;location;lat;lon;timestamp;P1;durP1;ratioP1;P2;durP2;ratioP2
34541;SDS011;20784;51.332;12.410;2023-03-17T00:01:13;8.52;;;4.43;;
34541;SDS011;20784;51.332;12.410;2023-03-17T00:03:40;8.35;;;4.00;;
34541;SDS011;20784;51.332;12.410;2023-03-17T00:06:10;10.02;;;4.13;;
34541;SDS011;20784;51.332;12.410;2023-03-17T00:08:40;9.20;;;4.10;;
34541;SDS011;20784;51.332;12.410;2023-03-17T00:11:09;8.50;;;3.97;;
34541;SDS011;20784;51.332;12.410;2023-03-17T00:13:40;7.75;;;4.20;;
34541;SDS011;20784;51.332;12.410;2023-03-17T00:16:26;10.77;;;4.47;;
34541;SDS011;20784;51.332;12.410;2023-03-17T00:18:54;9.48;;;3.72;;
34541;SDS011;20784;51.332;12.410;2023-03-17T00:21:28;9.88;;;3.97;;
34541;SDS011;20784;51.332;12.410;2023-03-17T00:23:56;15.70;;;5.00;;
34541;SDS011;20784;51.332;12.410;2023-03-17T00:26:22;7.47;;;3.60;;
34541;SDS011;20784;51.332;12.410;2023-03-17T00:28:51;10.07;;;4.15;;
34541;SDS011;20784;51.332;12.410;2023-03-17T00:31:23;8.43;;;4.25;;
34541;SDS011;20784;51.332;12.410;2023-03-17T00:33:50;9.48;;;3.80;;
34541;SDS011;20784;51.332;12.410;2023-03-17T00:36:26;7.03;;;4.03;;
34541;SDS011;20784;51.332;12.410;2023-03-17T00:38:54;8.73;;;3.95;;
34541;SDS011;20784;51.332;12.410;2023-03-17T00:41:21;6.90;;;3.72;;
34541;SDS011;20784;51.332;12.410;2023-03-17T00:43:47;8.55;;;4.28;;
34541;SDS011;20784;51.332;12.410;2023-03-17T00:46:15;6.95;;;3.47;;
34541;SDS011;20784;51.332;12.410;2023-03-17T00:48:47;7.90;;;3.67;;
34541;SDS011;20784;51.332;12.410;2023-03-17T00:51:13;10.32;;;4.10;;
34541;SDS011;20784;51.332;12.410;2023-03-17T00:53:40;8.95;;;3.58;;
34541;SDS011;20784;51.332;12.410;2023-03-17T00:56:24;8.50;;;4.10;;
34541;SDS011;20784;51.332;12.410;2023-03-17T00:58:50;7.22;;;3.33;;
34541;SDS011;20784;51.332;12.410;2023-03-17T01:01:16;7.57;;;3.92;;
34541;SDS011;20784;51.332;12.410;2023-03-17T01:03:44;7.75;;;3.80;;
34541;SDS011;20784;51.332;12.410;2023-03-17T01:06:11;7.93;;;3.42;;
34541;SDS011;20784;51.332;12.410;2023-03-17T01:08:39;6.88;;;3.35;;
34541;SDS011;20784;51.332;12.410;2023-03-17T01:11:05;7.50;;;3.72;;
34541;SDS011;20784;51.332;12.410;2023-03-17T01:13:38;6.88;;;3.40;;
34541;SDS011;20784;51.332;12.410;2023-03-17T01:16:04;5.35;;;3.22;;
34541;SDS011;20784;51.332;12.410;2023-03-17T01:18:34;12.13;;;3.33;;
34541;SDS011;20784;51.332;12.410;2023-03-17T01:20:59;7.03;;;3.20;;
34541;SDS011;20784;51.332;12.410;2023-03-17T01:23:27;10.52;;;3.50;;
34541;SDS011;20784;51.332;12.410;2023-03-17T01:25:53;6.82;;;3.13;;
34541;SDS011;20784;51.332;12.410;2023-03-17T01:28:20;6.43;;;3.53;;
34541;SDS011;20784;51.332;12.410;2023-03-17T01:30:46;6.25;;;3.22;;
34541;SDS011;20784;51.332;12.410;2023-03-17T01:33:14;5.88;;;2.97;;
34541;SDS011;20784;51.332;12.410;2023-03-17T01:35:43;5.10;;;2.55;;
34541;SDS011;20784;51.332;12.410;2023-03-17T01:38:12;7.13;;;3.17;;
34541;SDS011;20784;51.332;12.410;2023-03-17T01:40:43;8.57;;;3.10;;
34541;SDS011;20784;51.332;12.410;2023-03-17T01:48:39;7.07;;;2.85;;
34541;SDS011;20784;51.332;12.410;2023-03-17T01:51:09;8.05;;;3.42;;
34541;SDS011;20784;51.332;12.410;2023-03-17T01:53:38;7.75;;;2.92;;
34541;SDS011;20784;51.332;12.410;2023-03-17T01:56:05;6.82;;;2.95;;
34541;SDS011;20784;51.332;12.410;2023-03-17T01:58:32;7.30;;;2.80;;
34541;SDS011;20784;51.332;12.410;2023-03-17T02:00:58;5.10;;;3.10;;
34541;SDS011;20784;51.332;12.410;2023-03-17T02:03:25;5.28;;;2.97;;
34541;SDS011;20784;51.332;12.410;2023-03-17T02:05:52;6.07;;;2.88;;
34541;SDS011;20784;51.332;12.410;2023-03-17T02:08:18;3.78;;;2.63;;
34541;SDS011;20784;51.332;12.410;2023-03-17T02:10:45;5.05;;;2.72;;
34541;SDS011;20784;51.332;12.410;2023-03-17T02:13:14;4.10;;;2.50;;
34541;SDS011;20784;51.332;12.410;2023-03-17T02:15:49;5.13;;;2.45;;
34541;SDS011;20784;51.332;12.410;2023-03-17T02:18:18;4.47;;;2.35;;
34541;SDS011;20784;51.332;12.410;2023-03-17T02:23:12;4.70;;;2.42;;
34541;SDS011;20784;51.332;12.410;2023-03-17T02:25:42;4.68;;;2.45;;
34541;SDS011;20784;51.332;12.410;2023-03-17T02:28:12;6.82;;;3.03;;
34541;SDS011;20784;51.332;12.410;2023-03-17T02:30:41;8.27;;;2.60;;
34541;SDS011;20784;51.332;12.410;2023-03-17T02:33:08;4.50;;;2.63;;
34541;SDS011;20784;51.332;12.410;2023-03-17T02:35:33;5.43;;;2.67;;
34541;SDS011;20784;51.332;12.410;2023-03-17T02:37:59;5.15;;;2.83;;
34541;SDS011;20784;51.332;12.410;2023-03-17T02:40:25;4.05;;;2.53;;
34541;SDS011;20784;51.332;12.410;2023-03-17T02:42:51;5.07;;;2.50;;
34541;SDS011;20784;51.332;12.410;2023-03-17T02:45:23;7.50;;;2.72;;
34541;SDS011;20784;51.332;12.410;2023-03-17T02:47:49;3.63;;;2.20;;
34541;SDS011;20784;51.332;12.410;2023-03-17T02:50:17;6.13;;;2.35;;
34541;SDS011;20784;51.332;12.410;2023-03-17T02:52:46;3.70;;;2.03;;
34541;SDS011;20784;51.332;12.410;2023-03-17T02:55:11;7.45;;;2.47;;
34541;SDS011;20784;51.332;12.410;2023-03-17T02:57:38;5.57;;;2.17;;
34541;SDS011;20784;51.332;12.410;2023-03-17T03:00:03;4.30;;;2.35;;
34541;SDS011;20784;51.332;12.410;2023-03-17T03:02:29;6.00;;;2.30;;
34541;SDS011;20784;51.332;12.410;2023-03-17T03:05:01;5.00;;;2.35;;
34541;SDS011;20784;51.332;12.410;2023-03-17T03:07:32;4.65;;;2.38;;
34541;SDS011;20784;51.332;12.410;2023-03-17T03:09:58;4.63;;;2.20;;
34541;SDS011;20784;51.332;12.410;2023-03-17T03:12:24;4.07;;;2.30;;
34541;SDS011;20784;51.332;12.410;2023-03-17T03:14:50;4.70;;;2.03;;
34541;SDS011;20784;51.332;12.410;2023-03-17T03:17:15;8.93;;;2.60;;
34541;SDS011;20784;51.332;12.410;2023-03-17T03:19:41;5.10;;;2.50;;
34541;SDS011;20784;51.332;12.410;2023-03-17T03:22:07;6.38;;;2.47;;
34541;SDS011;20784;51.332;12.410;2023-03-17T03:24:35;4.40;;;2.38;;
34541;SDS011;20784;51.332;12.410;2023-03-17T03:27:01;6.07;;;2.35;;
34541;SDS011;20784;51.332;12.410;2023-03-17T03:29:30;7.05;;;2.72;;
34541;SDS011;20784;51.332;12.410;2023-03-17T03:31:56;5.30;;;2.80;;
34541;SDS011;20784;51.332;12.410;2023-03-17T03:34:21;7.28;;;3.10;;
34541;SDS011;20784;51.332;12.410;2023-03-17T03:36:50;5.15;;;2.42;;
34541;SDS011;20784;51.332;12.410;2023-03-17T03:39:15;5.72;;;2.58;;
34541;SDS011;20784;51.332;12.410;2023-03-17T03:41:41;5.38;;;2.45;;
34541;SDS011;20784;51.332;12.410;2023-03-17T03:44:07;4.18;;;2.30;;
34541;SDS011;20784;51.332;12.410;2023-03-17T03:46:32;10.07;;;2.25;;
34541;SDS011;20784;51.332;12.410;2023-03-17T03:48:58;4.85;;;2.35;;
34541;SDS011;20784;51.332;12.410;2023-03-17T03:51:24;5.18;;;2.22;;
34541;SDS011;20784;51.332;12.410;2023-03-17T03:53:52;5.60;;;2.63;;
34541;SDS011;20784;51.332;12.410;2023-03-17T03:56:17;4.43;;;2.17;;
34541;SDS011;20784;51.332;12.410;2023-03-17T03:58:43;5.65;;;2.10;;
34541;SDS011;20784;51.332;12.410;2023-03-17T04:01:09;5.90;;;2.10;;
34541;SDS011;20784;51.332;12.410;2023-03-17T04:03:35;3.03;;;2.03;;
34541;SDS011;20784;51.332;12.410;2023-03-17T04:06:02;6.85;;;3.20;;
34541;SDS011;20784;51.332;12.410;2023-03-17T04:08:28;3.97;;;1.90;;
34541;SDS011;20784;51.332;12.410;2023-03-17T04:10:55;3.75;;;2.08;;
34541;SDS011;20784;51.332;12.410;2023-03-17T04:13:21;4.32;;;2.00;;
34541;SDS011;20784;51.332;12.410;2023-03-17T04:15:46;3.75;;;2.15;;
34541;SDS011;20784;51.332;12.410;2023-03-17T04:18:12;3.35;;;1.98;;
34541;SDS011;20784;51.332;12.410;2023-03-17T04:20:38;4.57;;;2.55;;
34541;SDS011;20784;51.332;12.410;2023-03-17T04:23:03;2.90;;;1.90;;
34541;SDS011;20784;51.332;12.410;2023-03-17T04:25:29;6.60;;;2.05;;
34541;SDS011;20784;51.332;12.410;2023-03-17T04:27:55;4.28;;;2.10;;
34541;SDS011;20784;51.332;12.410;2023-03-17T04:30:21;7.30;;;1.80;;
34541;SDS011;20784;51.332;12.410;2023-03-17T04:32:46;3.97;;;2.25;;
34541;SDS011;20784;51.332;12.410;2023-03-17T04:35:13;7.28;;;2.22;;
34541;SDS011;20784;51.332;12.410;2023-03-17T04:37:44;3.83;;;2.20;;
34541;SDS011;20784;51.332;12.410;2023-03-17T04:40:10;6.50;;;2.20;;
34541;SDS011;20784;51.332;12.410;2023-03-17T04:42:37;3.72;;;1.90;;
34541;SDS011;20784;51.332;12.410;2023-03-17T04:45:04;4.88;;;2.05;;
34541;SDS011;20784;51.332;12.410;2023-03-17T04:47:31;4.05;;;2.10;;
34541;SDS011;20784;51.332;12.410;2023-03-17T04:49:57;4.38;;;1.70;;
34541;SDS011;20784;51.332;12.410;2023-03-17T04:52:22;4.15;;;2.22;;
34541;SDS011;20784;51.332;12.410;2023-03-17T04:54:48;4.53;;;1.83;;
34541;SDS011;20784;51.332;12.410;2023-03-17T04:57:14;4.68;;;2.10;;
34541;SDS011;20784;51.332;12.410;2023-03-17T04:59:39;7.93;;;2.20;;
34541;SDS011;20784;51.332;12.410;2023-03-17T05:02:05;4.47;;;2.30;;
34541;SDS011;20784;51.332;12.410;2023-03-17T05:04:31;6.10;;;2.55;;
34541;SDS011;20784;51.332;12.410;2023-03-17T05:06:58;6.20;;;2.33;;
34541;SDS011;20784;51.332;12.410;2023-03-17T05:09:25;5.45;;;2.42;;
34541;SDS011;20784;51.332;12.410;2023-03-17T05:11:52;6.45;;;2.38;;
34541;SDS011;20784;51.332;12.410;2023-03-17T05:14:18;3.47;;;2.30;;
34541;SDS011;20784;51.332;12.410;2023-03-17T05:16:47;8.43;;;2.45;;
34541;SDS011;20784;51.332;12.410;2023-03-17T05:19:14;3.80;;;2.33;;
34541;SDS011;20784;51.332;12.410;2023-03-17T05:21:40;5.15;;;2.28;;
34541;SDS011;20784;51.332;12.410;2023-03-17T05:24:06;4.50;;;2.40;;
34541;SDS011;20784;51.332;12.410;2023-03-17T05:26:32;4.10;;;2.85;;
34541;SDS011;20784;51.332;12.410;2023-03-17T05:28:58;4.88;;;2.30;;
34541;SDS011;20784;51.332;12.410;2023-03-17T05:31:24;5.07;;;2.53;;
34541;SDS011;20784;51.332;12.410;2023-03-17T05:33:49;8.70;;;2.42;;
34541;SDS011;20784;51.332;12.410;2023-03-17T05:36:16;9.38;;;2.72;;
34541;SDS011;20784;51.332;12.410;2023-03-17T05:38:42;5.45;;;2.45;;
34541;SDS011;20784;51.332;12.410;2023-03-17T05:41:08;6.00;;;2.13;;
34541;SDS011;20784;51.332;12.410;2023-03-17T05:43:34;4.50;;;2.67;;
34541;SDS011;20784;51.332;12.410;2023-03-17T05:46:01;8.40;;;3.00;;
34541;SDS011;20784;51.332;12.410;2023-03-17T05:48:27;4.35;;;2.50;;
34541;SDS011;20784;51.332;12.410;2023-03-17T05:50:53;5.75;;;2.80;;
34541;SDS011;20784;51.332;12.410;2023-03-17T05:53:19;5.25;;;2.53;;
34541;SDS011;20784;51.332;12.410;2023-03-17T05:55:44;4.57;;;2.25;;
34541;SDS011;20784;51.332;12.410;2023-03-17T05:58:10;4.10;;;2.35;;
34541;SDS011;20784;51.332;12.410;2023-03-17T06:00:36;4.97;;;2.47;;
34541;SDS011;20784;51.332;12.410;2023-03-17T06:03:02;6.22;;;2.45;;
34541;SDS011;20784;51.332;12.410;2023-03-17T06:05:28;5.72;;;2.78;;
34541;SDS011;20784;51.332;12.410;2023-03-17T06:07:54;11.90;;;3.00;;
34541;SDS011;20784;51.332;12.410;2023-03-17T06:10:20;5.10;;;2.90;;
34541;SDS011;20784;51.332;12.410;2023-03-17T06:12:46;8.18;;;3.00;;
34541;SDS011;20784;51.332;12.410;2023-03-17T06:15:12;7.63;;;2.83;;
34541;SDS011;20784;51.332;12.410;2023-03-17T06:17:37;8.25;;;2.80;;
34541;SDS011;20784;51.332;12.410;2023-03-17T06:20:03;5.72;;;2.83;;
34541;SDS011;20784;51.332;12.410;2023-03-17T06:22:30;6.65;;;2.75;;
34541;SDS011;20784;51.332;12.410;2023-03-17T06:24:59;11.82;;;2.80;;
34541;SDS011;20784;51.332;12.410;2023-03-17T06:27:34;8.27;;;3.25;;
34541;SDS011;20784;51.332;12.410;2023-03-17T06:30:03;5.50;;;2.97;;
34541;SDS011;20784;51.332;12.410;2023-03-17T06:32:30;6.25;;;3.13;;
34541;SDS011;20784;51.332;12.410;2023-03-17T06:34:55;12.95;;;3.80;;
34541;SDS011;20784;51.332;12.410;2023-03-17T06:37:21;10.52;;;3.08;;
34541;SDS011;20784;51.332;12.410;2023-03-17T06:39:47;8.38;;;3.47;;
34541;SDS011;20784;51.332;12.410;2023-03-17T06:42:15;8.07;;;3.15;;
34541;SDS011;20784;51.332;12.410;2023-03-17T06:44:41;7.97;;;2.97;;
34541;SDS011;20784;51.332;12.410;2023-03-17T06:47:09;8.98;;;3.60;;
34541;SDS011;20784;51.332;12.410;2023-03-17T06:49:38;5.95;;;3.60;;
34541;SDS011;20784;51.332;12.410;2023-03-17T06:52:04;5.57;;;3.35;;
34541;SDS011;20784;51.332;12.410;2023-03-17T06:54:29;6.10;;;3.50;;
34541;SDS011;20784;51.332;12.410;2023-03-17T06:56:57;8.48;;;3.97;;
34541;SDS011;20784;51.332;12.410;2023-03-17T06:59:23;10.20;;;4.68;;
34541;SDS011;20784;51.332;12.410;2023-03-17T07:01:50;8.15;;;4.43;;
34541;SDS011;20784;51.332;12.410;2023-03-17T07:04:16;7.70;;;4.35;;
34541;SDS011;20784;51.332;12.410;2023-03-17T07:06:41;8.07;;;3.40;;
34541;SDS011;20784;51.332;12.410;2023-03-17T07:09:07;8.55;;;3.42;;
34541;SDS011;20784;51.332;12.410;2023-03-17T07:11:34;6.25;;;3.28;;
34541;SDS011;20784;51.332;12.410;2023-03-17T07:14:00;8.15;;;3.50;;
34541;SDS011;20784;51.332;12.410;2023-03-17T07:16:26;10.23;;;3.20;;
34541;SDS011;20784;51.332;12.410;2023-03-17T07:18:52;11.13;;;3.22;;
34541;SDS011;20784;51.332;12.410;2023-03-17T07:21:19;5.85;;;3.17;;
34541;SDS011;20784;51.332;12.410;2023-03-17T07:23:45;8.15;;;3.00;;
34541;SDS011;20784;51.332;12.410;2023-03-17T07:26:10;7.68;;;3.75;;
34541;SDS011;20784;51.332;12.410;2023-03-17T07:28:36;13.10;;;4.15;;
34541;SDS011;20784;51.332;12.410;2023-03-17T07:31:02;8.48;;;4.72;;
34541;SDS011;20784;51.332;12.410;2023-03-17T07:33:29;11.00;;;5.32;;
34541;SDS011;20784;51.332;12.410;2023-03-17T07:35:55;10.85;;;4.47;;
34541;SDS011;20784;51.332;12.410;2023-03-17T07:38:21;9.90;;;4.45;;
34541;SDS011;20784;51.332;12.410;2023-03-17T07:40:47;6.28;;;3.65;;
34541;SDS011;20784;51.332;12.410;2023-03-17T07:43:13;8.73;;;3.85;;
34541;SDS011;20784;51.332;12.410;2023-03-17T07:45:40;7.57;;;2.95;;
34541;SDS011;20784;51.332;12.410;2023-03-17T07:48:10;7.10;;;3.50;;
34541;SDS011;20784;51.332;12.410;2023-03-17T07:50:36;7.63;;;3.15;;
34541;SDS011;20784;51.332;12.410;2023-03-17T07:53:02;8.40;;;3.38;;
34541;SDS011;20784;51.332;12.410;2023-03-17T07:55:29;6.43;;;3.13;;
34541;SDS011;20784;51.332;12.410;2023-03-17T07:57:56;11.82;;;3.58;;
34541;SDS011;20784;51.332;12.410;2023-03-17T08:00:22;4.90;;;2.97;;
34541;SDS011;20784;51.332;12.410;2023-03-17T08:02:47;5.63;;;2.63;;
34541;SDS011;20784;51.332;12.410;2023-03-17T08:05:20;7.93;;;3.10;;
34541;SDS011;20784;51.332;12.410;2023-03-17T08:07:46;6.90;;;2.53;;
34541;SDS011;20784;51.332;12.410;2023-03-17T08:10:11;8.35;;;2.50;;
34541;SDS011;20784;51.332;12.410;2023-03-17T08:12:37;5.05;;;2.05;;
34541;SDS011;20784;51.332;12.410;2023-03-17T08:15:04;7.32;;;2.60;;
34541;SDS011;20784;51.332;12.410;2023-03-17T08:17:31;6.25;;;2.30;;
34541;SDS011;20784;51.332;12.410;2023-03-17T08:19:58;6.55;;;2.20;;
34541;SDS011;20784;51.332;12.410;2023-03-17T08:22:28;4.30;;;1.90;;
34541;SDS011;20784;51.332;12.410;2023-03-17T08:24:57;4.38;;;2.28;;
34541;SDS011;20784;51.332;12.410;2023-03-17T08:27:22;5.38;;;2.45;;
34541;SDS011;20784;51.332;12.410;2023-03-17T08:29:48;4.53;;;2.25;;
34541;SDS011;20784;51.332;12.410;2023-03-17T08:32:15;8.52;;;2.30;;
34541;SDS011;20784;51.332;12.410;2023-03-17T08:34:41;4.72;;;2.28;;
34541;SDS011;20784;51.332;12.410;2023-03-17T08:37:16;5.30;;;2.28;;
34541;SDS011;20784;51.332;12.410;2023-03-17T08:39:45;6.13;;;2.72;;
34541;SDS011;20784;51.332;12.410;2023-03-17T08:42:13;7.37;;;2.53;;
34541;SDS011;20784;51.332;12.410;2023-03-17T08:44:41;5.05;;;2.25;;
34541;SDS011;20784;51.332;12.410;2023-03-17T08:47:07;4.90;;;2.28;;
34541;SDS011;20784;51.332;12.410;2023-03-17T08:49:33;3.38;;;2.42;;
34541;SDS011;20784;51.332;12.410;2023-03-17T08:52:00;7.35;;;2.72;;
34541;SDS011;20784;51.332;12.410;2023-03-17T08:54:28;3.60;;;2.15;;
34541;SDS011;20784;51.332;12.410;2023-03-17T08:56:54;3.40;;;1.90;;
34541;SDS011;20784;51.332;12.410;2023-03-17T08:59:19;5.07;;;2.03;;
34541;SDS011;20784;51.332;12.410;2023-03-17T09:01:45;5.50;;;2.05;;
34541;SDS011;20784;51.332;12.410;2023-03-17T09:04:11;4.63;;;2.20;;
34541;SDS011;20784;51.332;12.410;2023-03-17T09:06:47;3.35;;;2.15;;
34541;SDS011;20784;51.332;12.410;2023-03-17T09:09:12;3.15;;;1.60;;
34541;SDS011;20784;51.332;12.410;2023-03-17T09:11:38;4.78;;;2.22;;
34541;SDS011;20784;51.332;12.410;2023-03-17T09:14:04;17.60;;;2.22;;
34541;SDS011;20784;51.332;12.410;2023-03-17T09:16:30;2.90;;;1.60;;
34541;SDS011;20784;51.332;12.410;2023-03-17T09:18:58;3.90;;;1.60;;
34541;SDS011;20784;51.332;12.410;2023-03-17T09:21:23;4.93;;;1.75;;
34541;SDS011;20784;51.332;12.410;2023-03-17T09:23:49;5.60;;;1.80;;
34541;SDS011;20784;51.332;12.410;2023-03-17T09:26:24;3.35;;;1.60;;
34541;SDS011;20784;51.332;12.410;2023-03-17T09:28:50;3.88;;;1.42;;
34541;SDS011;20784;51.332;12.410;2023-03-17T09:31:16;4.25;;;1.70;;
34541;SDS011;20784;51.332;12.410;2023-03-17T09:33:42;3.40;;;1.48;;
34541;SDS011;20784;51.332;12.410;2023-03-17T09:36:08;5.97;;;2.10;;
34541;SDS011;20784;51.332;12.410;2023-03-17T09:38:34;5.70;;;2.15;;
34541;SDS011;20784;51.332;12.410;2023-03-17T09:43:46;2.33;;;1.60;;
34541;SDS011;20784;51.332;12.410;2023-03-17T09:49:28;4.50;;;2.00;;
34541;SDS011;20784;51.332;12.410;2023-03-17T09:52:04;5.72;;;1.52;;
34541;SDS011;20784;51.332;12.410;2023-03-17T09:54:37;4.80;;;2.00;;
34541;SDS011;20784;51.332;12.410;2023-03-17T09:57:05;9.45;;;2.13;;
34541;SDS011;20784;51.332;12.410;2023-03-17T09:59:51;2.58;;;1.40;;
34541;SDS011;20784;51.332;12.410;2023-03-17T10:04:52;3.92;;;1.90;;
34541;SDS011;20784;51.332;12.410;2023-03-17T10:07:20;5.97;;;2.55;;
34541;SDS011;20784;51.332;12.410;2023-03-17T10:10:00;4.88;;;1.70;;
34541;SDS011;20784;51.332;12.410;2023-03-17T10:18:00;13.40;;;3.25;;
34541;SDS011;20784;51.332;12.410;2023-03-17T10:20:32;4.60;;;1.85;;
34541;SDS011;20784;51.332;12.410;2023-03-17T10:23:05;6.30;;;2.20;;
34541;SDS011;20784;51.332;12.410;2023-03-17T10:25:34;4.35;;;2.35;;
34541;SDS011;20784;51.332;12.410;2023-03-17T10:28:01;6.55;;;1.77;;
34541;SDS011;20784;51.332;12.410;2023-03-17T10:30:45;3.42;;;1.85;;
34541;SDS011;20784;51.332;12.410;2023-03-17T10:33:11;8.63;;;2.40;;
34541;SDS011;20784;51.332;12.410;2023-03-17T10:35:37;3.85;;;2.65;;
34541;SDS011;20784;51.332;12.410;2023-03-17T10:38:13;4.10;;;2.05;;
34541;SDS011;20784;51.332;12.410;2023-03-17T10:40:43;5.32;;;2.40;;
34541;SDS011;20784;51.332;12.410;2023-03-17T10:43:15;4.63;;;2.07;;
34541;SDS011;20784;51.332;12.410;2023-03-17T10:45:54;4.78;;;2.63;;
34541;SDS011;20784;51.332;12.410;2023-03-17T10:48:24;4.10;;;1.80;;
34541;SDS011;20784;51.332;12.410;2023-03-17T10:50:56;6.15;;;1.98;;
34541;SDS011;20784;51.332;12.410;2023-03-17T10:53:25;11.95;;;2.03;;
34541;SDS011;20784;51.332;12.410;2023-03-17T10:55:58;4.10;;;1.90;;
34541;SDS011;20784;51.332;12.410;2023-03-17T10:58:34;9.38;;;3.25;;
34541;SDS011;20784;51.332;12.410;2023-03-17T11:03:48;3.97;;;1.77;;
34541;SDS011;20784;51.332;12.410;2023-03-17T11:06:17;3.67;;;1.70;;
34541;SDS011;20784;51.332;12.410;2023-03-17T11:08:51;3.30;;;1.40;;
34541;SDS011;20784;51.332;12.410;2023-03-17T11:11:23;10.95;;;1.80;;
34541;SDS011;20784;51.332;12.410;2023-03-17T11:14:01;4.07;;;1.63;;
34541;SDS011;20784;51.332;12.410;2023-03-17T11:16:28;5.38;;;2.00;;
34541;SDS011;20784;51.332;12.410;2023-03-17T11:18:58;9.10;;;2.10;;
34541;SDS011;20784;51.332;12.410;2023-03-17T11:21:28;3.75;;;1.63;;
34541;SDS011;20784;51.332;12.410;2023-03-17T11:24:01;2.50;;;1.60;;
34541;SDS011;20784;51.332;12.410;2023-03-17T11:31:55;4.57;;;1.60;;
34541;SDS011;20784;51.332;12.410;2023-03-17T11:37:04;2.40;;;1.40;;
34541;SDS011;20784;51.332;12.410;2023-03-17T11:42:30;6.78;;;1.70;;
34541;SDS011;20784;51.332;12.410;2023-03-17T11:55:43;4.20;;;1.50;;
34541;SDS011;20784;51.332;12.410;2023-03-17T11:58:56;3.38;;;1.70;;
34541;SDS011;20784;51.332;12.410;2023-03-17T12:01:06;3.60;;;1.75;;
34541;SDS011;20784;51.332;12.410;2023-03-17T12:06:36;3.97;;;1.67;;
34541;SDS011;20784;51.332;12.410;2023-03-17T12:12:00;2.50;;;1.52;;
34541;SDS011;20784;51.332;12.410;2023-03-17T12:14:29;2.38;;;1.60;;
34541;SDS011;20784;51.332;12.410;2023-03-17T12:22:46;2.50;;;1.48;;
34541;SDS011;20784;51.332;12.410;2023-03-17T12:25:26;2.25;;;1.33;;
34541;SDS011;20784;51.332;12.410;2023-03-17T12:28:24;2.75;;;1.42;;
34541;SDS011;20784;51.332;12.410;2023-03-17T12:30:56;3.97;;;1.40;;
34541;SDS011;20784;51.332;12.410;2023-03-17T12:36:02;2.25;;;1.55;;
34541;SDS011;20784;51.332;12.410;2023-03-17T12:38:39;4.65;;;1.58;;
34541;SDS011;20784;51.332;12.410;2023-03-17T12:52:41;3.42;;;1.25;;
34541;SDS011;20784;51.332;12.410;2023-03-17T12:55:30;3.20;;;1.10;;
34541;SDS011;20784;51.332;12.410;2023-03-17T12:58:47;4.83;;;1.60;;
34541;SDS011;20784;51.332;12.410;2023-03-17T13:01:04;2.30;;;1.25;;
34541;SDS011;20784;51.332;12.410;2023-03-17T13:03:44;1.90;;;1.20;;
34541;SDS011;20784;51.332;12.410;2023-03-17T13:06:22;1.33;;;1.08;;
34541;SDS011;20784;51.332;12.410;2023-03-17T13:08:48;3.03;;;1.30;;
34541;SDS011;20784;51.332;12.410;2023-03-17T13:11:45;2.92;;;1.20;;
34541;SDS011;20784;51.332;12.410;2023-03-17T13:14:15;1.88;;;1.17;;
34541;SDS011;20784;51.332;12.410;2023-03-17T13:19:56;1.42;;;1.10;;
34541;SDS011;20784;51.332;12.410;2023-03-17T13:22:37;6.97;;;1.80;;
34541;SDS011;20784;51.332;12.410;2023-03-17T13:35:56;5.13;;;2.40;;
34541;SDS011;20784;51.332;12.410;2023-03-17T13:39:05;5.68;;;2.33;;
34541;SDS011;20784;51.332;12.410;2023-03-17T13:41:56;5.07;;;2.30;;
34541;SDS011;20784;51.332;12.410;2023-03-17T13:47:34;3.83;;;2.17;;
34541;SDS011;20784;51.332;12.410;2023-03-17T13:50:35;7.03;;;2.47;;
34541;SDS011;20784;51.332;12.410;2023-03-17T13:52:56;5.20;;;2.28;;
34541;SDS011;20784;51.332;12.410;2023-03-17T13:55:36;3.42;;;2.13;;
34541;SDS011;20784;51.332;12.410;2023-03-17T14:00:39;5.65;;;2.85;;
34541;SDS011;20784;51.332;12.410;2023-03-17T14:06:02;6.88;;;2.70;;
34541;SDS011;20784;51.332;12.410;2023-03-17T14:08:35;8.10;;;2.80;;
34541;SDS011;20784;51.332;12.410;2023-03-17T14:11:06;3.80;;;2.20;;
34541;SDS011;20784;51.332;12.410;2023-03-17T14:13:51;3.28;;;2.17;;
34541;SDS011;20784;51.332;12.410;2023-03-17T14:16:41;6.43;;;2.70;;
34541;SDS011;20784;51.332;12.410;2023-03-17T14:19:19;6.65;;;2.30;;
34541;SDS011;20784;51.332;12.410;2023-03-17T14:21:51;5.60;;;2.78;;
34541;SDS011;20784;51.332;12.410;2023-03-17T14:24:27;4.63;;;2.60;;
34541;SDS011;20784;51.332;12.410;2023-03-17T14:26:54;4.53;;;2.50;;
34541;SDS011;20784;51.332;12.410;2023-03-17T14:29:22;4.47;;;2.63;;
34541;SDS011;20784;51.332;12.410;2023-03-17T14:31:59;8.68;;;2.72;;
34541;SDS011;20784;51.332;12.410;2023-03-17T14:34:31;5.35;;;2.30;;
34541;SDS011;20784;51.332;12.410;2023-03-17T14:36:59;4.38;;;2.13;;
34541;SDS011;20784;51.332;12.410;2023-03-17T14:39:25;4.45;;;2.70;;
34541;SDS011;20784;51.332;12.410;2023-03-17T14:42:02;4.40;;;2.30;;
34541;SDS011;20784;51.332;12.410;2023-03-17T14:44:38;5.45;;;2.47;;
34541;SDS011;20784;51.332;12.410;2023-03-17T14:47:06;5.78;;;2.30;;
34541;SDS011;20784;51.332;12.410;2023-03-17T14:49:40;5.18;;;2.53;;
34541;SDS011;20784;51.332;12.410;2023-03-17T14:52:14;6.13;;;2.67;;
34541;SDS011;20784;51.332;12.410;2023-03-17T14:54:47;3.58;;;2.28;;
34541;SDS011;20784;51.332;12.410;2023-03-17T14:57:17;7.53;;;2.50;;
34541;SDS011;20784;51.332;12.410;2023-03-17T14:59:54;6.40;;;2.50;;
34541;SDS011;20784;51.332;12.410;2023-03-17T15:02:32;4.32;;;2.22;;
34541;SDS011;20784;51.332;12.410;2023-03-17T15:05:22;7.93;;;2.70;;
34541;SDS011;20784;51.332;12.410;2023-03-17T15:07:57;3.73;;;2.10;;
34541;SDS011;20784;51.332;12.410;2023-03-17T15:10:24;4.65;;;2.40;;
34541;SDS011;20784;51.332;12.410;2023-03-17T15:12:58;5.05;;;2.58;;
34541;SDS011;20784;51.332;12.410;2023-03-17T15:15:33;5.68;;;2.60;;
34541;SDS011;20784;51.332;12.410;2023-03-17T15:18:04;6.50;;;2.55;;
34541;SDS011;20784;51.332;12.410;2023-03-17T15:20:37;5.35;;;2.55;;
34541;SDS011;20784;51.332;12.410;2023-03-17T15:23:18;6.25;;;2.92;;
34541;SDS011;20784;51.332;12.410;2023-03-17T15:25:53;7.82;;;2.58;;
34541;SDS011;20784;51.332;12.410;2023-03-17T15:28:26;3.80;;;2.22;;
34541;SDS011;20784;51.332;12.410;2023-03-17T15:31:18;8.30;;;2.70;;
34541;SDS011;20784;51.332;12.410;2023-03-17T15:33:47;4.25;;;2.20;;
34541;SDS011;20784;51.332;12.410;2023-03-17T15:36:24;7.35;;;2.55;;
34541;SDS011;20784;51.332;12.410;2023-03-17T15:39:21;5.72;;;2.47;;
34541;SDS011;20784;51.332;12.410;2023-03-17T15:41:47;10.48;;;3.10;;
34541;SDS011;20784;51.332;12.410;2023-03-17T15:44:15;5.65;;;2.10;;
34541;SDS011;20784;51.332;12.410;2023-03-17T15:46:47;4.60;;;2.13;;
34541;SDS011;20784;51.332;12.410;2023-03-17T15:49:40;4.13;;;2.35;;
34541;SDS011;20784;51.332;12.410;2023-03-17T15:52:17;5.75;;;2.25;;
34541;SDS011;20784;51.332;12.410;2023-03-17T15:54:49;7.30;;;2.40;;
34541;SDS011;20784;51.332;12.410;2023-03-17T15:57:20;8.57;;;2.53;;
34541;SDS011;20784;51.332;12.410;2023-03-17T15:59:56;10.90;;;2.90;;
34541;SDS011;20784;51.332;12.410;2023-03-17T16:05:47;7.20;;;2.75;;
34541;SDS011;20784;51.332;12.410;2023-03-17T16:08:15;6.57;;;2.30;;
34541;SDS011;20784;51.332;12.410;2023-03-17T16:10:45;7.07;;;2.58;;
34541;SDS011;20784;51.332;12.410;2023-03-17T16:13:11;6.40;;;2.30;;
34541;SDS011;20784;51.332;12.410;2023-03-17T16:15:38;5.22;;;2.60;;
34541;SDS011;20784;51.332;12.410;2023-03-17T16:18:16;5.55;;;2.80;;
34541;SDS011;20784;51.332;12.410;2023-03-17T16:20:44;5.25;;;2.40;;
34541;SDS011;20784;51.332;12.410;2023-03-17T16:23:18;8.50;;;2.80;;
34541;SDS011;20784;51.332;12.410;2023-03-17T16:25:51;7.07;;;2.75;;